sensor_id;sensor_type;location;lat;lon;timestamp;temperature;humidity
21267;DHT22;10791;53.108;18.326;2023-04-15T00:02:18;9.20;99.90
21267;DHT22;10791;53.108;18.326;2023-04-15T00:07:22;9.10;99.90
21267;DHT22;10791;53.108;18.326;2023-04-15T00:12:26;9.10;99.90
21267;DHT22;10791;53.108;18.326;2023-04-15T00:17:30;9.00;99.90
21267;DHT22;10791;53.108;18.326;2023-04-15T00:22:34;9.00;99.90
21267;DHT22;10791;53.108;18.326;2023-04-15T00:27:37;9.00;99.90
21267;DHT22;10791;53.108;18.326;2023-04-15T00:32:40;8.90;99.90
21267;DHT22;10791;53.108;18.326;2023-04-15T00:37:44;8.90;99.90
21267;DHT22;10791;53.108;18.326;2023-04-15T00:42:48;8.90;99.90
21267;DHT22;10791;53.108;18.326;2023-04-15T00:47:51;8.80;99.90
21267;DHT22;10791;53.108;18.326;2023-04-15T00:52:54;8.90;99.90
21267;DHT22;10791;53.108;18.326;2023-04-15T00:57:58;8.90;99.90
21267;DHT22;10791;53.108;18.326;2023-04-15T01:03:01;9.00;99.90
21267;DHT22;10791;53.108;18.326;2023-04-15T01:08:05;9.10;99.90
21267;DHT22;10791;53.108;18.326;2023-04-15T01:13:08;9.00;99.90
21267;DHT22;10791;53.108;18.326;2023-04-15T01:18:12;9.00;99.90
21267;DHT22;10791;53.108;18.326;2023-04-15T01:23:16;8.90;99.90
21267;DHT22;10791;53.108;18.326;2023-04-15T01:28:19;8.80;99.90
21267;DHT22;10791;53.108;18.326;2023-04-15T01:33:23;8.80;99.90
21267;DHT22;10791;53.108;18.326;2023-04-15T01:38:26;8.80;99.90
21267;DHT22;10791;53.108;18.326;2023-04-15T01:43:30;8.70;99.90
21267;DHT22;10791;53.108;18.326;2023-04-15T01:48:33;8.80;99.90
21267;DHT22;10791;53.108;18.326;2023-04-15T01:53:36;8.70;99.90
21267;DHT22;10791;53.108;18.326;2023-04-15T01:58:39;8.80;99.90
21267;DHT22;10791;53.108;18.326;2023-04-15T02:03:43;8.80;99.90
21267;DHT22;10791;53.108;18.326;2023-04-15T02:08:46;8.80;99.90
21267;DHT22;10791;53.108;18.326;2023-04-15T02:13:50;8.80;99.90
21267;DHT22;10791;53.108;18.326;2023-04-15T02:18:54;8.80;99.90
21267;DHT22;10791;53.108;18.326;2023-04-15T02:23:57;8.90;99.90
21267;DHT22;10791;53.108;18.326;2023-04-15T02:29:01;8.90;99.90
21267;DHT22;10791;53.108;18.326;2023-04-15T02:34:04;9.00;99.90
21267;DHT22;10791;53.108;18.326;2023-04-15T02:39:08;9.10;99.90
21267;DHT22;10791;53.108;18.326;2023-04-15T02:44:11;9.10;99.90
21267;DHT22;10791;53.108;18.326;2023-04-15T02:49:15;9.20;99.90
21267;DHT22;10791;53.108;18.326;2023-04-15T02:54:19;9.30;99.90
21267;DHT22;10791;53.108;18.326;2023-04-15T02:59:22;9.40;99.90
21267;DHT22;10791;53.108;18.326;2023-04-15T03:04:26;9.50;99.90
21267;DHT22;10791;53.108;18.326;2023-04-15T03:09:32;9.60;99.90
21267;DHT22;10791;53.108;18.326;2023-04-15T03:14:35;9.70;99.90
21267;DHT22;10791;53.108;18.326;2023-04-15T03:19:38;9.70;99.90
21267;DHT22;10791;53.108;18.326;2023-04-15T03:24:42;9.80;99.90
21267;DHT22;10791;53.108;18.326;2023-04-15T03:29:45;9.80;99.90
21267;DHT22;10791;53.108;18.326;2023-04-15T03:34:49;9.80;99.90
21267;DHT22;10791;53.108;18.326;2023-04-15T03:39:52;9.80;99.90
21267;DHT22;10791;53.108;18.326;2023-04-15T03:44:55;9.80;99.90
21267;DHT22;10791;53.108;18.326;2023-04-15T03:49:59;9.90;99.90
21267;DHT22;10791;53.108;18.326;2023-04-15T03:55:02;9.90;99.90
21267;DHT22;10791;53.108;18.326;2023-04-15T04:00:06;10.00;99.90
21267;DHT22;10791;53.108;18.326;2023-04-15T04:05:11;10.00;99.90
21267;DHT22;10791;53.108;18.326;2023-04-15T04:10:14;10.00;99.90
21267;DHT22;10791;53.108;18.326;2023-04-15T04:15:18;10.10;99.90
21267;DHT22;10791;53.108;18.326;2023-04-15T04:20:21;10.00;99.90
21267;DHT22;10791;53.108;18.326;2023-04-15T04:25:25;10.10;99.90
21267;DHT22;10791;53.108;18.326;2023-04-15T04:30:29;10.20;99.90
21267;DHT22;10791;53.108;18.326;2023-04-15T04:35:32;10.10;99.90
21267;DHT22;10791;53.108;18.326;2023-04-15T04:40:36;10.20;99.90
21267;DHT22;10791;53.108;18.326;2023-04-15T04:45:40;10.20;99.90
21267;DHT22;10791;53.108;18.326;2023-04-15T04:50:44;10.30;99.90
21267;DHT22;10791;53.108;18.326;2023-04-15T04:55:49;10.30;99.90
21267;DHT22;10791;53.108;18.326;2023-04-15T05:00:52;10.30;99.90
21267;DHT22;10791;53.108;18.326;2023-04-15T05:05:56;10.30;99.90
21267;DHT22;10791;53.108;18.326;2023-04-15T05:10:59;10.30;99.90
21267;DHT22;10791;53.108;18.326;2023-04-15T05:16:05;10.30;99.90
21267;DHT22;10791;53.108;18.326;2023-04-15T05:21:09;10.30;99.90
21267;DHT22;10791;53.108;18.326;2023-04-15T05:26:13;10.30;99.90
21267;DHT22;10791;53.108;18.326;2023-04-15T05:31:16;10.30;99.90
21267;DHT22;10791;53.108;18.326;2023-04-15T05:36:19;10.20;99.90
21267;DHT22;10791;53.108;18.326;2023-04-15T05:41:23;10.20;99.90
21267;DHT22;10791;53.108;18.326;2023-04-15T05:46:26;10.10;99.90
21267;DHT22;10791;53.108;18.326;2023-04-15T05:51:29;10.00;99.90
21267;DHT22;10791;53.108;18.326;2023-04-15T05:56:33;9.90;99.90
21267;DHT22;10791;53.108;18.326;2023-04-15T06:01:36;9.70;99.90
21267;DHT22;10791;53.108;18.326;2023-04-15T06:06:40;9.60;99.90
21267;DHT22;10791;53.108;18.326;2023-04-15T06:11:43;9.50;99.90
21267;DHT22;10791;53.108;18.326;2023-04-15T06:16:47;9.50;99.90
21267;DHT22;10791;53.108;18.326;2023-04-15T06:21:50;9.50;99.90
21267;DHT22;10791;53.108;18.326;2023-04-15T06:26:53;9.40;99.90
21267;DHT22;10791;53.108;18.326;2023-04-15T06:31:57;9.40;99.90
21267;DHT22;10791;53.108;18.326;2023-04-15T06:37:00;9.40;99.90
21267;DHT22;10791;53.108;18.326;2023-04-15T06:42:06;9.40;99.90
21267;DHT22;10791;53.108;18.326;2023-04-15T06:47:10;9.30;99.90
21267;DHT22;10791;53.108;18.326;2023-04-15T06:52:15;9.40;99.90
21267;DHT22;10791;53.108;18.326;2023-04-15T06:57:18;9.50;99.90
21267;DHT22;10791;53.108;18.326;2023-04-15T07:02:27;9.50;99.90
21267;DHT22;10791;53.108;18.326;2023-04-15T07:07:31;9.50;99.90
21267;DHT22;10791;53.108;18.326;2023-04-15T07:12:39;9.70;99.90
21267;DHT22;10791;53.108;18.326;2023-04-15T07:17:44;9.70;99.90
21267;DHT22;10791;53.108;18.326;2023-04-15T07:22:48;9.80;99.90
21267;DHT22;10791;53.108;18.326;2023-04-15T07:27:52;9.70;99.90
21267;DHT22;10791;53.108;18.326;2023-04-15T07:32:56;9.70;99.90
21267;DHT22;10791;53.108;18.326;2023-04-15T07:38:00;9.70;99.90
21267;DHT22;10791;53.108;18.326;2023-04-15T07:43:04;9.70;99.90
21267;DHT22;10791;53.108;18.326;2023-04-15T07:48:08;9.70;99.90
21267;DHT22;10791;53.108;18.326;2023-04-15T07:53:16;9.80;99.90
21267;DHT22;10791;53.108;18.326;2023-04-15T07:58:20;9.80;99.90
21267;DHT22;10791;53.108;18.326;2023-04-15T08:03:24;9.90;99.90
21267;DHT22;10791;53.108;18.326;2023-04-15T08:08:27;9.90;99.90
21267;DHT22;10791;53.108;18.326;2023-04-15T08:13:31;9.90;99.90
21267;DHT22;10791;53.108;18.326;2023-04-15T08:18:34;10.00;99.90
21267;DHT22;10791;53.108;18.326;2023-04-15T08:23:38;10.00;99.90
21267;DHT22;10791;53.108;18.326;2023-04-15T08:28:43;10.00;99.90
21267;DHT22;10791;53.108;18.326;2023-04-15T08:33:48;10.00;99.90
21267;DHT22;10791;53.108;18.326;2023-04-15T08:38:54;10.00;99.90
21267;DHT22;10791;53.108;18.326;2023-04-15T08:44:02;10.10;99.90
21267;DHT22;10791;53.108;18.326;2023-04-15T08:49:09;10.10;99.90
21267;DHT22;10791;53.108;18.326;2023-04-15T08:54:15;10.20;99.90
21267;DHT22;10791;53.108;18.326;2023-04-15T08:59:20;10.20;99.90
21267;DHT22;10791;53.108;18.326;2023-04-15T09:04:24;10.20;99.90
21267;DHT22;10791;53.108;18.326;2023-04-15T09:09:28;10.10;99.90
21267;DHT22;10791;53.108;18.326;2023-04-15T09:14:32;10.10;99.90
21267;DHT22;10791;53.108;18.326;2023-04-15T09:19:36;10.20;99.90
21267;DHT22;10791;53.108;18.326;2023-04-15T09:24:40;10.30;99.90
21267;DHT22;10791;53.108;18.326;2023-04-15T09:29:49;10.50;99.90
21267;DHT22;10791;53.108;18.326;2023-04-15T09:34:52;10.50;99.90
21267;DHT22;10791;53.108;18.326;2023-04-15T09:39:55;10.50;99.90
21267;DHT22;10791;53.108;18.326;2023-04-15T09:45:11;10.50;99.90
21267;DHT22;10791;53.108;18.326;2023-04-15T09:50:14;10.50;99.90
21267;DHT22;10791;53.108;18.326;2023-04-15T09:55:18;10.60;99.90
21267;DHT22;10791;53.108;18.326;2023-04-15T10:00:21;10.70;99.90
21267;DHT22;10791;53.108;18.326;2023-04-15T10:05:24;10.80;99.90
21267;DHT22;10791;53.108;18.326;2023-04-15T10:10:28;10.80;99.90
21267;DHT22;10791;53.108;18.326;2023-04-15T10:15:32;10.70;99.90
21267;DHT22;10791;53.108;18.326;2023-04-15T10:20:37;10.70;99.90
21267;DHT22;10791;53.108;18.326;2023-04-15T10:25:45;10.60;99.90
21267;DHT22;10791;53.108;18.326;2023-04-15T10:30:49;10.50;99.90
21267;DHT22;10791;53.108;18.326;2023-04-15T10:35:53;10.50;99.90
21267;DHT22;10791;53.108;18.326;2023-04-15T10:41:24;10.40;99.90
21267;DHT22;10791;53.108;18.326;2023-04-15T10:46:44;10.50;99.90
21267;DHT22;10791;53.108;18.326;2023-04-15T10:51:51;10.60;99.90
21267;DHT22;10791;53.108;18.326;2023-04-15T11:02:12;10.50;99.90
21267;DHT22;10791;53.108;18.326;2023-04-15T11:12:55;10.40;99.90
21267;DHT22;10791;53.108;18.326;2023-04-15T11:18:08;10.40;99.90
21267;DHT22;10791;53.108;18.326;2023-04-15T11:23:13;10.30;99.90
21267;DHT22;10791;53.108;18.326;2023-04-15T11:28:18;10.30;99.90
21267;DHT22;10791;53.108;18.326;2023-04-15T11:33:22;10.30;99.90
21267;DHT22;10791;53.108;18.326;2023-04-15T11:38:27;10.40;99.90
21267;DHT22;10791;53.108;18.326;2023-04-15T11:43:31;10.40;99.90
21267;DHT22;10791;53.108;18.326;2023-04-15T11:48:40;10.40;99.90
21267;DHT22;10791;53.108;18.326;2023-04-15T11:53:46;10.40;99.90
21267;DHT22;10791;53.108;18.326;2023-04-15T11:58:54;10.40;99.90
21267;DHT22;10791;53.108;18.326;2023-04-15T12:04:02;10.40;99.90
21267;DHT22;10791;53.108;18.326;2023-04-15T12:09:16;10.40;99.90
21267;DHT22;10791;53.108;18.326;2023-04-15T12:19:25;10.50;99.90
21267;DHT22;10791;53.108;18.326;2023-04-15T12:24:35;10.50;99.90
21267;DHT22;10791;53.108;18.326;2023-04-15T12:29:40;10.50;99.90
21267;DHT22;10791;53.108;18.326;2023-04-15T12:34:52;10.50;99.90
21267;DHT22;10791;53.108;18.326;2023-04-15T12:40:00;10.50;99.90
21267;DHT22;10791;53.108;18.326;2023-04-15T12:45:03;10.60;99.90
21267;DHT22;10791;53.108;18.326;2023-04-15T12:50:07;10.70;99.90
21267;DHT22;10791;53.108;18.326;2023-04-15T12:55:10;10.60;99.90
21267;DHT22;10791;53.108;18.326;2023-04-15T13:00:14;10.70;99.90
21267;DHT22;10791;53.108;18.326;2023-04-15T13:05:18;10.70;99.90
21267;DHT22;10791;53.108;18.326;2023-04-15T13:10:21;10.70;99.90
21267;DHT22;10791;53.108;18.326;2023-04-15T13:15:25;10.80;99.90
21267;DHT22;10791;53.108;18.326;2023-04-15T13:20:28;10.70;99.90
21267;DHT22;10791;53.108;18.326;2023-04-15T13:25:31;10.70;99.90
21267;DHT22;10791;53.108;18.326;2023-04-15T13:30:36;10.60;99.90
21267;DHT22;10791;53.108;18.326;2023-04-15T13:35:40;10.60;99.90
21267;DHT22;10791;53.108;18.326;2023-04-15T13:40:44;10.70;99.90
21267;DHT22;10791;53.108;18.326;2023-04-15T13:45:47;10.70;99.90
21267;DHT22;10791;53.108;18.326;2023-04-15T13:50:51;10.80;99.90
21267;DHT22;10791;53.108;18.326;2023-04-15T13:55:55;10.80;99.90
21267;DHT22;10791;53.108;18.326;2023-04-15T14:00:59;10.80;99.90
21267;DHT22;10791;53.108;18.326;2023-04-15T14:06:05;10.80;99.90
21267;DHT22;10791;53.108;18.326;2023-04-15T14:11:09;10.70;99.90
21267;DHT22;10791;53.108;18.326;2023-04-15T14:16:12;10.70;99.90
21267;DHT22;10791;53.108;18.326;2023-04-15T14:21:15;10.60;99.90
21267;DHT22;10791;53.108;18.326;2023-04-15T14:26:19;10.40;99.90
21267;DHT22;10791;53.108;18.326;2023-04-15T14:31:22;10.40;99.90
21267;DHT22;10791;53.108;18.326;2023-04-15T14:36:26;10.40;99.90
21267;DHT22;10791;53.108;18.326;2023-04-15T14:41:30;10.50;99.90
21267;DHT22;10791;53.108;18.326;2023-04-15T14:46:34;10.60;99.90
21267;DHT22;10791;53.108;18.326;2023-04-15T14:51:38;10.60;99.90
21267;DHT22;10791;53.108;18.326;2023-04-15T14:56:43;10.60;99.90
21267;DHT22;10791;53.108;18.326;2023-04-15T15:01:47;10.70;99.90
21267;DHT22;10791;53.108;18.326;2023-04-15T15:06:50;10.70;99.90
21267;DHT22;10791;53.108;18.326;2023-04-15T15:11:54;10.70;99.90
21267;DHT22;10791;53.108;18.326;2023-04-15T15:17:00;10.80;99.90
21267;DHT22;10791;53.108;18.326;2023-04-15T15:22:03;10.70;99.90
21267;DHT22;10791;53.108;18.326;2023-04-15T15:27:08;10.60;99.90
21267;DHT22;10791;53.108;18.326;2023-04-15T15:32:12;10.60;99.90
21267;DHT22;10791;53.108;18.326;2023-04-15T15:37:15;10.70;99.90
21267;DHT22;10791;53.108;18.326;2023-04-15T15:42:19;10.80;99.90
21267;DHT22;10791;53.108;18.326;2023-04-15T15:47:22;10.90;99.90
21267;DHT22;10791;53.108;18.326;2023-04-15T15:52:26;10.90;99.90
21267;DHT22;10791;53.108;18.326;2023-04-15T15:57:30;10.80;99.90
21267;DHT22;10791;53.108;18.326;2023-04-15T16:02:35;10.70;99.90
21267;DHT22;10791;53.108;18.326;2023-04-15T16:08:00;10.50;99.90
21267;DHT22;10791;53.108;18.326;2023-04-15T16:13:04;10.40;99.90
21267;DHT22;10791;53.108;18.326;2023-04-15T16:18:07;10.40;99.90
21267;DHT22;10791;53.108;18.326;2023-04-15T16:23:15;10.40;99.90
21267;DHT22;10791;53.108;18.326;2023-04-15T16:28:19;10.50;99.90
21267;DHT22;10791;53.108;18.326;2023-04-15T16:33:29;10.40;99.90
21267;DHT22;10791;53.108;18.326;2023-04-15T16:38:33;10.40;99.90
21267;DHT22;10791;53.108;18.326;2023-04-15T16:43:37;10.50;99.90
21267;DHT22;10791;53.108;18.326;2023-04-15T16:48:41;10.40;99.90
21267;DHT22;10791;53.108;18.326;2023-04-15T16:53:45;10.40;99.90
21267;DHT22;10791;53.108;18.326;2023-04-15T16:58:50;10.40;99.90
21267;DHT22;10791;53.108;18.326;2023-04-15T17:03:54;10.30;99.90
21267;DHT22;10791;53.108;18.326;2023-04-15T17:09:00;10.30;99.90
21267;DHT22;10791;53.108;18.326;2023-04-15T17:14:08;10.30;99.90
21267;DHT22;10791;53.108;18.326;2023-04-15T17:19:12;10.20;99.90
21267;DHT22;10791;53.108;18.326;2023-04-15T17:24:16;10.20;99.90
21267;DHT22;10791;53.108;18.326;2023-04-15T17:29:19;10.00;99.90
21267;DHT22;10791;53.108;18.326;2023-04-15T17:34:23;9.80;99.90
21267;DHT22;10791;53.108;18.326;2023-04-15T17:39:48;9.70;99.90
21267;DHT22;10791;53.108;18.326;2023-04-15T17:44:52;9.70;99.90
21267;DHT22;10791;53.108;18.326;2023-04-15T17:50:00;9.60;99.90
21267;DHT22;10791;53.108;18.326;2023-04-15T17:55:07;9.70;99.90
21267;DHT22;10791;53.108;18.326;2023-04-15T18:00:11;9.70;99.90
21267;DHT22;10791;53.108;18.326;2023-04-15T18:05:17;9.60;99.90
21267;DHT22;10791;53.108;18.326;2023-04-15T18:10:23;9.60;99.90
21267;DHT22;10791;53.108;18.326;2023-04-15T18:15:31;9.70;99.90
21267;DHT22;10791;53.108;18.326;2023-04-15T18:20:36;9.70;99.90
21267;DHT22;10791;53.108;18.326;2023-04-15T18:25:43;9.70;99.90
21267;DHT22;10791;53.108;18.326;2023-04-15T18:30:49;9.70;99.90
21267;DHT22;10791;53.108;18.326;2023-04-15T18:35:53;9.70;99.90
21267;DHT22;10791;53.108;18.326;2023-04-15T18:41:00;9.80;99.90
21267;DHT22;10791;53.108;18.326;2023-04-15T18:46:07;9.70;99.90
21267;DHT22;10791;53.108;18.326;2023-04-15T18:51:16;9.70;99.90
21267;DHT22;10791;53.108;18.326;2023-04-15T18:56:21;9.70;99.90
21267;DHT22;10791;53.108;18.326;2023-04-15T19:01:30;9.70;99.90
21267;DHT22;10791;53.108;18.326;2023-04-15T19:06:37;9.60;99.90
21267;DHT22;10791;53.108;18.326;2023-04-15T19:11:42;9.60;99.90
21267;DHT22;10791;53.108;18.326;2023-04-15T19:16:48;9.50;99.90
21267;DHT22;10791;53.108;18.326;2023-04-15T19:21:53;9.50;99.90
21267;DHT22;10791;53.108;18.326;2023-04-15T19:26:58;9.50;99.90
21267;DHT22;10791;53.108;18.326;2023-04-15T19:32:05;9.50;99.90
21267;DHT22;10791;53.108;18.326;2023-04-15T19:37:10;9.50;99.90
21267;DHT22;10791;53.108;18.326;2023-04-15T19:42:15;9.60;99.90
21267;DHT22;10791;53.108;18.326;2023-04-15T19:47:21;9.60;99.90
21267;DHT22;10791;53.108;18.326;2023-04-15T19:52:26;9.50;99.90
21267;DHT22;10791;53.108;18.326;2023-04-15T19:57:35;9.50;99.90
21267;DHT22;10791;53.108;18.326;2023-04-15T20:02:42;9.50;99.90
21267;DHT22;10791;53.108;18.326;2023-04-15T20:07:48;9.50;99.90
21267;DHT22;10791;53.108;18.326;2023-04-15T20:12:55;9.50;99.90
21267;DHT22;10791;53.108;18.326;2023-04-15T20:18:03;9.50;99.90
21267;DHT22;10791;53.108;18.326;2023-04-15T20:23:09;9.40;99.90
21267;DHT22;10791;53.108;18.326;2023-04-15T20:28:14;9.40;99.90
21267;DHT22;10791;53.108;18.326;2023-04-15T20:33:21;9.30;99.90
21267;DHT22;10791;53.108;18.326;2023-04-15T20:38:28;9.30;99.90
21267;DHT22;10791;53.108;18.326;2023-04-15T20:43:33;9.30;99.90
21267;DHT22;10791;53.108;18.326;2023-04-15T20:48:38;9.30;99.90
21267;DHT22;10791;53.108;18.326;2023-04-15T20:53:42;9.20;99.90
21267;DHT22;10791;53.108;18.326;2023-04-15T20:58:45;9.20;99.90
21267;DHT22;10791;53.108;18.326;2023-04-15T21:03:50;9.20;99.90
21267;DHT22;10791;53.108;18.326;2023-04-15T21:09:00;9.20;99.90
21267;DHT22;10791;53.108;18.326;2023-04-15T21:14:11;9.10;99.90
21267;DHT22;10791;53.108;18.326;2023-04-15T21:19:17;9.20;99.90
21267;DHT22;10791;53.108;18.326;2023-04-15T21:24:20;9.20;99.90
21267;DHT22;10791;53.108;18.326;2023-04-15T21:29:26;9.10;99.90
21267;DHT22;10791;53.108;18.326;2023-04-15T21:34:29;9.10;99.90
21267;DHT22;10791;53.108;18.326;2023-04-15T21:39:33;9.10;99.90
21267;DHT22;10791;53.108;18.326;2023-04-15T21:44:36;9.10;99.90
21267;DHT22;10791;53.108;18.326;2023-04-15T21:49:39;9.10;99.90
21267;DHT22;10791;53.108;18.326;2023-04-15T21:54:42;9.10;99.90
21267;DHT22;10791;53.108;18.326;2023-04-15T21:59:46;9.10;99.90
21267;DHT22;10791;53.108;18.326;2023-04-15T22:04:50;9.10;99.90
21267;DHT22;10791;53.108;18.326;2023-04-15T22:09:53;9.10;99.90
21267;DHT22;10791;53.108;18.326;2023-04-15T22:14:56;9.10;99.90
21267;DHT22;10791;53.108;18.326;2023-04-15T22:20:00;9.10;99.90
21267;DHT22;10791;53.108;18.326;2023-04-15T22:25:04;9.00;99.90
21267;DHT22;10791;53.108;18.326;2023-04-15T22:30:09;9.00;99.90
21267;DHT22;10791;53.108;18.326;2023-04-15T22:35:12;8.90;99.90
21267;DHT22;10791;53.108;18.326;2023-04-15T22:40:16;8.90;99.90
21267;DHT22;10791;53.108;18.326;2023-04-15T22:45:20;8.90;99.90
21267;DHT22;10791;53.108;18.326;2023-04-15T22:50:23;8.90;99.90
21267;DHT22;10791;53.108;18.326;2023-04-15T22:55:26;8.90;99.90
21267;DHT22;10791;53.108;18.326;2023-04-15T23:00:30;8.90;99.90
21267;DHT22;10791;53.108;18.326;2023-04-15T23:05:33;8.90;99.90
21267;DHT22;10791;53.108;18.326;2023-04-15T23:10:36;8.90;99.90
21267;DHT22;10791;53.108;18.326;2023-04-15T23:15:41;8.80;99.90
21267;DHT22;10791;53.108;18.326;2023-04-15T23:20:45;8.90;99.90
21267;DHT22;10791;53.108;18.326;2023-04-15T23:25:48;8.90;99.90
21267;DHT22;10791;53.108;18.326;2023-04-15T23:30:52;8.90;99.90
21267;DHT22;10791;53.108;18.326;2023-04-15T23:35:55;8.80;99.90
21267;DHT22;10791;53.108;18.326;2023-04-15T23:40:58;8.80;99.90
21267;DHT22;10791;53.108;18.326;2023-04-15T23:46:03;8.80;99.90
21267;DHT22;10791;53.108;18.326;2023-04-15T23:51:06;8.70;99.90
21267;DHT22;10791;53.108;18.326;2023-04-15T23:56:09;8.70;99.90
